createdAt,value
2018-10-03T00:02:15.433Z,15.28
2018-10-03T00:04:44.098Z,15.55
2018-10-03T00:07:12.645Z,16.37
2018-10-03T00:09:41.079Z,16.24
2018-10-03T00:12:09.568Z,16.08
2018-10-03T00:14:37.898Z,16.57
2018-10-03T00:17:06.390Z,16.43
2018-10-03T00:19:35.038Z,16.29
2018-10-03T00:22:03.316Z,16.53
2018-10-03T00:24:31.698Z,16.55
2018-10-03T00:26:59.995Z,16.55
2018-10-03T00:29:28.338Z,16.55
2018-10-03T00:31:56.665Z,15.69
2018-10-03T00:34:25.166Z,16.24
2018-10-03T00:36:53.425Z,16.21
2018-10-03T00:39:21.733Z,16.44
2018-10-03T00:41:50.028Z,16.25
2018-10-03T00:44:18.392Z,15.63
2018-10-03T00:46:46.729Z,15.23
2018-10-03T00:49:15.024Z,15.98
2018-10-03T00:51:43.421Z,15.86
2018-10-03T00:54:11.898Z,16.18
2018-10-03T00:56:40.208Z,16.38
2018-10-03T00:59:08.603Z,16.10
2018-10-03T01:01:36.860Z,14.93
2018-10-03T01:04:05.203Z,15.86
2018-10-03T01:06:33.495Z,15.73
2018-10-03T01:09:01.816Z,15.60
2018-10-03T01:11:30.171Z,15.67
2018-10-03T01:13:58.631Z,14.91
2018-10-03T01:16:26.949Z,15.59
2018-10-03T01:18:55.279Z,15.31
2018-10-03T01:21:23.661Z,15.90
2018-10-03T01:23:51.970Z,15.92
2018-10-03T01:26:20.256Z,15.64
2018-10-03T01:28:48.588Z,15.80
2018-10-03T01:31:16.937Z,15.15
2018-10-03T01:33:45.292Z,15.60
2018-10-03T01:36:13.597Z,15.39
2018-10-03T01:38:41.994Z,15.30
2018-10-03T01:41:10.343Z,16.14
2018-10-03T01:43:38.653Z,15.59
2018-10-03T01:46:07.098Z,16.13
2018-10-03T01:48:35.806Z,15.53
2018-10-03T01:51:04.164Z,15.55
2018-10-03T01:53:32.512Z,16.26
2018-10-03T01:56:00.881Z,15.81
2018-10-03T01:58:29.368Z,15.98
2018-10-03T02:00:57.668Z,16.28
2018-10-03T02:03:25.962Z,15.91
2018-10-03T02:05:54.354Z,15.92
2018-10-03T02:08:22.677Z,16.15
2018-10-03T02:10:51.029Z,16.34
2018-10-03T02:13:19.368Z,16.10
2018-10-03T02:15:47.713Z,16.13
2018-10-03T02:18:16.266Z,15.96
2018-10-03T02:20:44.615Z,16.10
2018-10-03T02:23:13.012Z,16.11
2018-10-03T02:25:41.392Z,15.54
2018-10-03T02:28:09.661Z,15.24
2018-10-03T02:30:37.966Z,15.40
2018-10-03T02:33:06.279Z,15.30
2018-10-03T02:35:34.610Z,15.21
2018-10-03T02:38:02.978Z,15.70
2018-10-03T02:40:31.367Z,15.66
2018-10-03T02:42:59.730Z,15.05
2018-10-03T02:45:28.028Z,15.30
2018-10-03T02:47:56.343Z,15.76
2018-10-03T02:50:24.779Z,16.07
2018-10-03T02:52:53.098Z,15.36
2018-10-03T02:55:21.407Z,15.57
2018-10-03T02:57:49.700Z,15.78
2018-10-03T03:00:18.192Z,15.73
2018-10-03T03:02:46.594Z,15.86
2018-10-03T03:05:15.956Z,15.89
2018-10-03T03:07:44.276Z,16.04
2018-10-03T03:10:12.748Z,16.42
2018-10-03T03:12:41.053Z,16.04
2018-10-03T03:15:09.479Z,15.76
2018-10-03T03:17:37.840Z,15.99
2018-10-03T03:20:06.271Z,15.85
2018-10-03T03:22:34.557Z,16.42
2018-10-03T03:25:02.975Z,15.96
2018-10-03T03:27:31.480Z,15.51
2018-10-03T03:29:59.736Z,15.79
2018-10-03T03:32:28.448Z,15.52
2018-10-03T03:34:56.761Z,15.20
2018-10-03T03:37:25.217Z,15.77
2018-10-03T03:39:53.696Z,15.56
2018-10-03T03:42:22.182Z,15.82
2018-10-03T03:44:50.855Z,15.77
2018-10-03T03:47:19.181Z,15.58
2018-10-03T03:49:47.447Z,16.12
2018-10-03T03:52:15.807Z,15.95
2018-10-03T03:54:44.080Z,15.84
2018-10-03T03:57:12.559Z,15.75
2018-10-03T03:59:42.125Z,15.87
2018-10-03T04:02:10.426Z,15.71
2018-10-03T04:04:38.786Z,15.28
2018-10-03T04:07:07.253Z,15.83
2018-10-03T04:09:36.075Z,15.11
2018-10-03T04:12:04.428Z,15.17
2018-10-03T04:14:32.729Z,14.98
2018-10-03T04:17:01.007Z,15.17
2018-10-03T04:19:29.270Z,15.18
2018-10-03T04:21:57.587Z,15.46
2018-10-03T04:24:25.964Z,15.44
2018-10-03T04:26:54.381Z,15.38
2018-10-03T04:29:22.717Z,15.38
2018-10-03T04:31:51.071Z,15.48
2018-10-03T04:34:19.553Z,15.30
2018-10-03T04:36:47.962Z,15.45
2018-10-03T04:39:16.400Z,15.96
2018-10-03T04:41:44.878Z,15.46
2018-10-03T04:44:13.192Z,15.96
2018-10-03T04:46:41.520Z,15.73
2018-10-03T04:49:10.105Z,15.62
2018-10-03T04:51:38.355Z,15.89
2018-10-03T04:54:06.872Z,16.12
2018-10-03T04:56:35.146Z,15.96
2018-10-03T04:59:03.548Z,15.57
2018-10-03T05:01:31.977Z,15.96
2018-10-03T05:04:00.324Z,15.67
2018-10-03T05:06:28.858Z,15.67
2018-10-03T05:08:57.402Z,15.62
2018-10-03T05:11:25.939Z,15.73
2018-10-03T05:13:54.404Z,15.95
2018-10-03T05:16:22.780Z,16.66
2018-10-03T05:18:51.100Z,16.58
2018-10-03T05:21:19.652Z,16.68
2018-10-03T05:23:48.231Z,16.38
2018-10-03T05:26:17.341Z,16.21
2018-10-03T05:28:45.637Z,16.11
2018-10-03T05:31:14.080Z,16.36
2018-10-03T05:33:42.466Z,17.03
2018-10-03T05:36:10.810Z,16.42
2018-10-03T05:38:39.349Z,16.42
2018-10-03T05:41:07.676Z,16.65
2018-10-03T05:43:35.987Z,16.48
2018-10-03T05:46:04.371Z,17.09
2018-10-03T05:48:32.665Z,16.74
2018-10-03T05:51:00.886Z,17.23
2018-10-03T05:53:29.202Z,17.22
2018-10-03T05:55:57.524Z,17.21
2018-10-03T05:58:25.860Z,16.95
2018-10-03T06:00:54.285Z,17.07
2018-10-03T06:03:22.760Z,17.56
2018-10-03T06:05:51.021Z,17.29
2018-10-03T06:08:19.419Z,17.86
2018-10-03T06:10:47.819Z,17.90
2018-10-03T06:13:16.220Z,17.22
2018-10-03T06:15:44.928Z,17.27
2018-10-03T06:18:13.485Z,17.08
2018-10-03T06:20:41.969Z,17.74
2018-10-03T06:23:10.352Z,17.28
2018-10-03T06:25:38.736Z,17.89
2018-10-03T06:28:07.089Z,17.77
2018-10-03T06:30:35.608Z,17.74
2018-10-03T06:33:03.939Z,17.89
2018-10-03T06:35:32.680Z,17.23
2018-10-03T06:38:01.148Z,18.00
2018-10-03T06:40:29.430Z,18.39
2018-10-03T06:42:58.536Z,18.12
2018-10-03T06:45:27.225Z,17.58
2018-10-03T06:47:56.595Z,17.97
2018-10-03T06:50:25.827Z,17.89
2018-10-03T06:52:54.252Z,17.27
2018-10-03T06:55:22.646Z,17.33
2018-10-03T06:57:50.960Z,17.21
2018-10-03T07:00:19.511Z,17.53
2018-10-03T07:02:47.930Z,17.38
2018-10-03T07:05:16.496Z,16.97
2018-10-03T07:07:44.857Z,17.15
2018-10-03T07:10:13.432Z,17.43
2018-10-03T07:12:41.899Z,17.53
2018-10-03T07:15:10.495Z,17.15
2018-10-03T07:17:38.904Z,16.77
2018-10-03T07:20:07.527Z,16.66
2018-10-03T07:22:35.876Z,17.28
2018-10-03T07:25:04.430Z,17.02
2018-10-03T07:27:32.909Z,16.84
2018-10-03T07:30:01.366Z,16.98
2018-10-03T07:32:30.426Z,16.53
2018-10-03T07:34:58.813Z,17.22
2018-10-03T07:37:27.118Z,17.99
2018-10-03T07:39:56.906Z,19.71
2018-10-03T07:42:25.181Z,18.81
2018-10-03T07:44:53.488Z,18.27
2018-10-03T07:47:21.887Z,18.18
2018-10-03T07:49:50.359Z,17.94
2018-10-03T07:52:18.640Z,17.73
2018-10-03T07:54:46.939Z,17.66
2018-10-03T07:57:15.274Z,16.69
2018-10-03T07:59:43.553Z,17.11
2018-10-03T08:02:11.897Z,16.99
2018-10-03T08:04:40.389Z,17.39
2018-10-03T08:07:08.631Z,17.32
2018-10-03T08:09:36.923Z,17.12
2018-10-03T08:12:05.333Z,17.24
2018-10-03T08:14:33.633Z,17.60
2018-10-03T08:17:01.958Z,17.62
2018-10-03T08:19:30.420Z,17.46
2018-10-03T08:21:58.724Z,17.72
2018-10-03T08:24:27.168Z,18.10
2018-10-03T08:26:55.454Z,17.60
2018-10-03T08:29:23.863Z,17.34
2018-10-03T08:31:52.260Z,17.48
2018-10-03T08:34:21.212Z,17.79
2018-10-03T08:36:49.553Z,18.47
2018-10-03T08:39:18.047Z,18.54
2018-10-03T08:41:46.423Z,18.44
2018-10-03T08:44:14.703Z,18.68
2018-10-03T08:46:43.166Z,18.57
2018-10-03T08:49:11.469Z,18.70
2018-10-03T08:51:39.747Z,19.13
2018-10-03T08:54:08.003Z,19.37
2018-10-03T08:56:36.344Z,19.76
2018-10-03T08:59:04.637Z,20.03
2018-10-03T09:01:33.124Z,19.77
2018-10-03T09:04:01.772Z,19.53
2018-10-03T09:06:30.088Z,19.62
2018-10-03T09:08:58.391Z,19.16
2018-10-03T09:11:27.223Z,18.85
2018-10-03T09:13:55.737Z,19.88
2018-10-03T09:16:24.247Z,20.42
2018-10-03T09:18:52.532Z,20.94
2018-10-03T09:21:20.888Z,19.01
2018-10-03T09:23:49.264Z,19.42
2018-10-03T09:26:17.565Z,20.03
2018-10-03T09:28:45.889Z,19.70
2018-10-03T09:31:14.892Z,20.42
2018-10-03T09:33:43.317Z,20.61
2018-10-03T09:36:11.743Z,19.02
2018-10-03T09:38:40.053Z,19.44
2018-10-03T09:41:08.344Z,19.50
2018-10-03T09:43:36.651Z,19.84
2018-10-03T09:46:04.983Z,19.96
2018-10-03T09:48:33.282Z,20.08
2018-10-03T09:51:02.456Z,18.94
2018-10-03T09:53:31.145Z,19.10
2018-10-03T09:55:59.438Z,20.29
2018-10-03T09:58:27.909Z,21.01
2018-10-03T10:01:01.784Z,19.71
2018-10-03T10:03:30.453Z,20.45
2018-10-03T10:05:58.794Z,18.86
2018-10-03T10:08:27.371Z,19.64
2018-10-03T10:10:55.730Z,20.47
2018-10-03T10:13:24.250Z,19.07
2018-10-03T10:15:52.664Z,19.26
2018-10-03T10:18:21.063Z,20.14
2018-10-03T10:20:49.908Z,20.83
2018-10-03T10:23:18.290Z,20.83
2018-10-03T10:25:46.588Z,20.89
2018-10-03T10:28:15.016Z,20.40
2018-10-03T10:30:43.413Z,19.93
2018-10-03T10:33:12.092Z,19.53
2018-10-03T10:35:40.456Z,19.13
2018-10-03T10:38:08.891Z,19.93
2018-10-03T10:40:38.681Z,19.83
2018-10-03T10:43:07.377Z,20.49
2018-10-03T10:45:35.748Z,20.82
2018-10-03T10:48:04.393Z,20.45
2018-10-03T10:50:32.666Z,20.20
2018-10-03T10:53:00.968Z,20.26
2018-10-03T10:55:29.492Z,20.22
2018-10-03T10:57:57.833Z,20.86
2018-10-03T11:00:27.545Z,20.49
2018-10-03T11:02:56.156Z,20.66
2018-10-03T11:05:24.640Z,21.40
2018-10-03T11:07:53.451Z,22.23
2018-10-03T11:10:21.889Z,22.44
2018-10-03T11:12:50.373Z,23.37
2018-10-03T11:15:19.421Z,21.51
2018-10-03T11:17:47.685Z,20.90
2018-10-03T11:20:16.335Z,20.61
2018-10-03T11:22:44.690Z,21.86
2018-10-03T11:25:13.106Z,20.97
2018-10-03T11:27:41.598Z,20.97
2018-10-03T11:30:09.789Z,21.72
2018-10-03T11:32:38.283Z,22.51
2018-10-03T11:35:06.954Z,22.26
2018-10-03T11:37:35.393Z,21.08
2018-10-03T11:40:03.898Z,21.13
2018-10-03T11:42:32.196Z,21.38
2018-10-03T11:45:00.602Z,21.45
2018-10-03T11:47:29.000Z,20.87
2018-10-03T11:49:57.353Z,21.42
2018-10-03T11:52:26.546Z,20.64
2018-10-03T11:54:54.923Z,20.33
2018-10-03T11:57:23.339Z,20.42
2018-10-03T11:59:51.724Z,20.34
2018-10-03T12:02:20.070Z,21.27
2018-10-03T12:04:48.331Z,21.27
2018-10-03T12:07:16.729Z,20.98
2018-10-03T12:09:45.224Z,20.51
2018-10-03T12:12:13.547Z,20.73
2018-10-03T12:14:42.007Z,20.14
2018-10-03T12:17:10.426Z,19.97
2018-10-03T12:19:38.715Z,20.09
2018-10-03T12:22:07.110Z,19.55
2018-10-03T12:24:35.562Z,20.03
2018-10-03T12:27:03.917Z,20.23
2018-10-03T12:29:32.374Z,19.79
2018-10-03T12:32:00.756Z,19.44
2018-10-03T12:34:29.113Z,20.19
2018-10-03T12:36:57.471Z,19.97
2018-10-03T12:39:25.847Z,19.44
2018-10-03T12:41:54.506Z,20.05
2018-10-03T12:44:22.812Z,20.86
2018-10-03T12:46:51.162Z,20.90
2018-10-03T12:49:19.474Z,21.04
2018-10-03T12:51:47.781Z,20.38
2018-10-03T12:54:16.098Z,20.82
2018-10-03T12:56:44.632Z,20.35
2018-10-03T12:59:13.007Z,20.34
2018-10-03T13:01:41.521Z,20.73
2018-10-03T13:04:10.050Z,19.72
2018-10-03T13:06:38.359Z,19.92
2018-10-03T13:09:10.112Z,21.09
2018-10-03T13:11:38.369Z,21.29
2018-10-03T13:14:07.046Z,20.10
2018-10-03T13:16:35.320Z,19.85
2018-10-03T13:19:03.672Z,20.33
2018-10-03T13:21:32.163Z,19.41
2018-10-03T13:24:00.489Z,19.33
2018-10-03T13:26:28.742Z,19.33
2018-10-03T13:28:57.314Z,20.04
2018-10-03T13:31:25.720Z,20.26
2018-10-03T13:33:54.050Z,19.77
2018-10-03T13:36:22.544Z,19.48
2018-10-03T13:38:50.929Z,20.19
2018-10-03T13:41:19.199Z,20.28
2018-10-03T13:43:47.599Z,19.53
2018-10-03T13:46:15.894Z,19.81
2018-10-03T13:48:44.213Z,21.13
2018-10-03T13:51:12.664Z,21.38
2018-10-03T13:53:41.112Z,21.68
2018-10-03T13:56:09.623Z,20.58
2018-10-03T13:58:37.962Z,22.77
2018-10-03T14:01:06.352Z,22.63
2018-10-03T14:03:35.038Z,22.95
2018-10-03T14:06:03.370Z,23.41
2018-10-03T14:08:31.701Z,24.23
2018-10-03T14:11:00.012Z,25.04
2018-10-03T14:13:28.300Z,24.91
2018-10-03T14:15:56.637Z,23.62
2018-10-03T14:18:25.216Z,26.06
2018-10-03T14:20:53.501Z,26.19
2018-10-03T14:23:22.077Z,25.53
2018-10-03T14:25:50.393Z,24.69
2018-10-03T14:28:19.447Z,24.31
2018-10-03T14:30:48.150Z,23.57
2018-10-03T14:33:16.510Z,23.14
2018-10-03T14:35:44.907Z,23.94
2018-10-03T14:38:13.252Z,25.62
2018-10-03T14:40:41.604Z,25.77
2018-10-03T14:43:09.869Z,25.40
2018-10-03T14:45:38.218Z,24.81
2018-10-03T14:48:06.500Z,24.54
2018-10-03T14:50:34.929Z,25.24
2018-10-03T14:53:03.384Z,24.85
2018-10-03T14:55:31.824Z,25.19
2018-10-03T14:58:00.225Z,24.85
2018-10-03T15:00:28.604Z,26.40
2018-10-03T15:02:56.876Z,27.95
2018-10-03T15:05:25.341Z,29.69
2018-10-03T15:07:53.717Z,27.71
2018-10-03T15:10:22.141Z,29.18
2018-10-03T15:12:50.485Z,30.33
2018-10-03T15:15:18.852Z,30.57
2018-10-03T15:17:47.207Z,30.43
2018-10-03T15:20:15.649Z,30.33
2018-10-03T15:22:43.981Z,28.06
2018-10-03T15:25:12.379Z,25.87
2018-10-03T15:27:40.783Z,26.49
2018-10-03T15:30:09.241Z,25.89
2018-10-03T15:32:37.596Z,24.85
2018-10-03T15:35:05.954Z,24.26
2018-10-03T15:37:34.989Z,24.59
2018-10-03T15:40:03.387Z,25.08
2018-10-03T15:42:31.715Z,23.69
2018-10-03T15:45:00.097Z,24.76
2018-10-03T15:47:28.413Z,23.84
2018-10-03T15:49:56.892Z,24.27
2018-10-03T15:52:25.194Z,23.28
2018-10-03T15:54:53.536Z,21.91
2018-10-03T15:57:21.823Z,22.28
2018-10-03T15:59:50.119Z,21.67
2018-10-03T16:02:18.600Z,21.92
2018-10-03T16:04:46.932Z,22.25
2018-10-03T16:07:15.276Z,22.24
2018-10-03T16:09:43.724Z,21.14
2018-10-03T16:12:12.120Z,21.21
2018-10-03T16:14:40.383Z,20.13
2018-10-03T16:17:08.693Z,21.80
2018-10-03T16:19:37.186Z,23.13
2018-10-03T16:22:05.526Z,21.48
2018-10-03T16:24:33.882Z,21.71
2018-10-03T16:27:02.143Z,20.94
2018-10-03T16:29:30.463Z,21.36
2018-10-03T16:31:58.769Z,20.60
2018-10-03T16:34:27.078Z,20.49
2018-10-03T16:36:55.544Z,22.98
2018-10-03T16:39:23.853Z,24.33
2018-10-03T16:41:52.153Z,25.50
2018-10-03T16:44:20.473Z,24.99
2018-10-03T16:46:48.776Z,26.00
2018-10-03T16:49:17.137Z,26.02
2018-10-03T16:51:45.508Z,25.83
2018-10-03T16:54:14.125Z,25.93
2018-10-03T16:56:42.440Z,25.32
2018-10-03T16:59:10.743Z,25.71
2018-10-03T17:01:39.636Z,23.64
2018-10-03T17:04:08.238Z,22.60
2018-10-03T17:06:36.622Z,21.32
2018-10-03T17:09:06.644Z,20.43
2018-10-03T17:11:35.356Z,21.95
2018-10-03T17:14:14.825Z,23.69
2018-10-03T17:16:43.092Z,24.72
2018-10-03T17:19:11.424Z,25.48
2018-10-03T17:21:39.728Z,26.34
2018-10-03T17:24:08.372Z,25.76
2018-10-03T17:26:36.871Z,25.64
2018-10-03T17:29:05.158Z,26.37
2018-10-03T17:31:33.526Z,25.60
2018-10-03T17:34:02.012Z,24.19
2018-10-03T17:36:31.019Z,24.75
2018-10-03T17:39:00.160Z,25.02
2018-10-03T17:41:28.792Z,25.09
2018-10-03T17:43:57.307Z,25.44
2018-10-03T17:46:25.858Z,25.40
2018-10-03T17:48:54.486Z,24.73
2018-10-03T17:51:22.913Z,25.23
2018-10-03T17:53:51.341Z,24.99
2018-10-03T17:56:20.066Z,26.10
2018-10-03T17:58:48.420Z,26.29
2018-10-03T18:01:16.865Z,26.37
2018-10-03T18:03:45.257Z,26.02
2018-10-03T18:06:13.704Z,26.33
2018-10-03T18:08:42.399Z,26.28
2018-10-03T18:11:11.174Z,26.44
2018-10-03T18:13:39.589Z,26.58
2018-10-03T18:16:07.955Z,26.46
2018-10-03T18:18:36.864Z,25.70
2018-10-03T18:21:05.386Z,25.84
2018-10-03T18:23:33.706Z,25.37
2018-10-03T18:26:02.132Z,25.98
2018-10-03T18:28:30.416Z,25.85
2018-10-03T18:30:58.927Z,25.20
2018-10-03T18:33:27.250Z,24.97
2018-10-03T18:35:55.676Z,24.68
2018-10-03T18:38:24.153Z,25.26
2018-10-03T18:40:52.760Z,25.25
2018-10-03T18:43:21.078Z,24.02
2018-10-03T18:45:49.619Z,22.07
2018-10-03T18:48:17.987Z,21.26
2018-10-03T18:50:46.578Z,20.99
2018-10-03T18:53:15.000Z,20.08
2018-10-03T18:55:43.379Z,19.94
2018-10-03T18:58:11.874Z,20.05
2018-10-03T19:00:40.454Z,19.85
2018-10-03T19:03:08.856Z,19.55
2018-10-03T19:05:37.458Z,19.75
2018-10-03T19:08:05.823Z,19.20
2018-10-03T19:10:34.228Z,19.53
2018-10-03T19:13:02.588Z,19.41
2018-10-03T19:15:30.945Z,19.16
2018-10-03T19:17:59.452Z,19.06
2018-10-03T19:20:29.245Z,18.91
2018-10-03T19:35:26.777Z,18.11
2018-10-03T19:38:20.935Z,17.49
2018-10-03T19:43:54.237Z,17.68
2018-10-03T19:46:23.438Z,18.03
2018-10-03T19:48:53.673Z,18.19
2018-10-03T19:51:23.432Z,18.02
2018-10-03T19:53:56.366Z,18.06
2018-10-03T19:56:27.013Z,18.26
2018-10-03T19:58:56.308Z,18.09
2018-10-03T20:01:25.804Z,17.76
2018-10-03T20:03:54.959Z,17.75
2018-10-03T20:06:43.334Z,17.65
2018-10-03T20:09:18.027Z,17.58
2018-10-03T20:11:47.051Z,17.54
2018-10-03T20:14:17.733Z,17.42
2018-10-03T20:16:46.861Z,16.85
2018-10-03T20:19:15.557Z,17.35
2018-10-03T20:21:44.432Z,17.32
2018-10-03T20:24:18.908Z,17.38
2018-10-03T20:26:49.590Z,17.30
2018-10-03T20:29:19.680Z,17.00
2018-10-03T20:32:00.995Z,16.41
2018-10-03T20:34:30.154Z,16.02
2018-10-03T20:37:00.562Z,16.58
2018-10-03T20:39:29.443Z,16.46
2018-10-03T20:41:58.980Z,16.49
2018-10-03T20:44:27.760Z,16.88
2018-10-03T20:46:56.347Z,17.03
2018-10-03T20:49:25.370Z,17.01
2018-10-03T20:51:54.005Z,17.31
2018-10-03T20:54:24.810Z,17.34
2018-10-03T20:56:53.794Z,17.67
2018-10-03T20:59:27.444Z,17.44
2018-10-03T21:01:57.244Z,17.46
2018-10-03T21:04:25.933Z,17.34
2018-10-03T21:06:54.746Z,17.00
2018-10-03T21:09:25.578Z,17.05
2018-10-03T21:11:54.780Z,17.06
2018-10-03T21:14:29.644Z,16.88
2018-10-03T21:16:58.011Z,16.77
2018-10-03T21:19:26.471Z,16.70
2018-10-03T21:21:55.168Z,16.81
2018-10-03T21:24:24.799Z,17.23
2018-10-03T21:26:55.434Z,16.92
2018-10-03T21:29:25.170Z,16.30
2018-10-03T21:31:54.573Z,16.26
2018-10-03T21:34:24.398Z,16.59
2018-10-03T21:36:55.471Z,16.19
2018-10-03T21:39:32.505Z,16.07
2018-10-03T21:42:11.285Z,15.99
2018-10-03T21:44:40.743Z,16.06
2018-10-03T21:47:09.559Z,15.74
2018-10-03T21:49:38.071Z,16.14
2018-10-03T21:52:06.842Z,16.03
2018-10-03T21:54:59.180Z,16.28
2018-10-03T21:57:27.926Z,16.38
2018-10-03T22:00:04.325Z,16.24
2018-10-03T22:02:32.928Z,16.25
2018-10-03T22:05:16.017Z,16.17
2018-10-03T22:07:44.583Z,16.18
2018-10-03T22:10:13.275Z,16.08
2018-10-03T22:12:41.869Z,15.91
2018-10-03T22:15:28.406Z,16.10
2018-10-03T22:17:57.021Z,16.35
2018-10-03T22:20:25.844Z,16.35
2018-10-03T22:25:47.037Z,16.44
2018-10-03T22:28:15.584Z,16.26
2018-10-03T22:30:44.076Z,16.36
2018-10-03T22:33:12.649Z,16.31
2018-10-03T22:35:41.198Z,16.19
2018-10-03T22:38:09.862Z,16.13
2018-10-03T22:40:38.462Z,16.05
2018-10-03T22:43:06.754Z,15.98
2018-10-03T22:45:35.052Z,15.97
2018-10-03T22:48:03.348Z,16.02
2018-10-03T22:50:31.678Z,15.97
2018-10-03T22:53:00.207Z,15.85
2018-10-03T22:55:28.660Z,15.80
2018-10-03T22:58:01.716Z,15.82
2018-10-03T23:00:30.192Z,15.87
2018-10-03T23:02:58.645Z,15.66
2018-10-03T23:05:27.244Z,15.66
2018-10-03T23:07:55.618Z,15.36
2018-10-03T23:10:27.479Z,15.51
2018-10-03T23:12:55.980Z,15.38
2018-10-03T23:15:24.682Z,15.25
2018-10-03T23:17:53.328Z,15.33
2018-10-03T23:20:21.898Z,15.37
2018-10-03T23:22:50.490Z,15.12
2018-10-03T23:25:19.238Z,15.18
2018-10-03T23:28:09.988Z,15.20
2018-10-03T23:30:38.577Z,14.99
2018-10-03T23:33:30.386Z,14.79
2018-10-03T23:35:59.001Z,14.88
2018-10-03T23:38:27.449Z,14.83
2018-10-03T23:40:56.075Z,14.84
2018-10-03T23:43:24.603Z,14.91
2018-10-03T23:45:53.209Z,14.83
2018-10-03T23:48:21.841Z,14.73
2018-10-03T23:50:50.471Z,14.86
2018-10-03T23:56:30.473Z,14.56
2018-10-03T23:58:59.012Z,14.56
